Terminal Aerodrome Forecast
Issued by NWS

Home | Current Version | Previous Version | Graphics & Text | Print | Product List | Glossary On
Versions: 1 2 3 4 5 6 7 8 9 10 11 12 13 14 15 16 17 18 19 20 21 22
000
FTUS43 KUNR 282300
TAFGCC
TAF
KGCC 282320Z 2900/2924 03011KT 3SM BR SCT004 OVC008
     FM290300 06010KT 3SM -SHRA BR OVC004
     FM291800 17012KT 6SM BR SCT008 BKN015
     FM292100 16012KT P6SM SCT015 BKN035=

USA.gov is the U.S. government's official web portal to all federal, state and local government web resources and services.